CheckWX is a tool to help pilots better visualize weather data.  It is not intended as a substitute for an official pre-flight weather briefing.

06:13:01 UTC

KGDV METAR
Dawson Community Airport
Glendive, Montana, USA
Current

17 mins ago

KGDV 230556Z AUTO 20008KT 10SM CLR 08/04 A3005 RMK AO2 SLP180 T00780039 10172 20078 58019
Observed
Apr-23 @ 05:56 UTC
Wind
  • 200° at 8 KTS
Visibility
10 SM
Flight Rules
VFR
Cloud Levels
  • Clear skies
Temperature
C / 46°F
Dewpoint
C / 39°F
Humidity
76%
Altimeter
30.05" Hg
Pressure
1017.62 hPa
Previous

1 hour ago

KGDV 230456Z AUTO 19006KT 10SM CLR 09/04 A3008 RMK AO2 SLP189 T00940039
Observed
Apr-23 @ 04:56 UTC
Wind
  • 190° at 6 KTS
Visibility
10 SM
Flight Rules
VFR
Cloud Levels
  • Clear skies
Temperature
C / 48°F
Dewpoint
C / 39°F
Humidity
71%
Altimeter
30.08" Hg
Pressure
1018.62 hPa
Previous

2 hours ago

KGDV 230356Z AUTO 19007KT 10SM CLR 10/03 A3010 RMK AO2 SLP198 T01000033
Observed
Apr-23 @ 03:56 UTC
Wind
  • 190° at 7 KTS
Visibility
10 SM
Flight Rules
VFR
Cloud Levels
  • Clear skies
Temperature
10°C / 50°F
Dewpoint
C / 37°F
Humidity
62%
Altimeter
30.1" Hg
Pressure
1019.32 hPa